createdAt,value
2019-04-23T00:00:40.722Z,988.02
2019-04-23T00:01:41.865Z,988.02
2019-04-23T00:02:44.383Z,987.96
2019-04-23T00:03:40.250Z,987.99
2019-04-23T00:04:35.187Z,988.03
2019-04-23T00:05:49.071Z,987.98
2019-04-23T00:06:53.844Z,987.93
2019-04-23T00:07:49.300Z,987.96
2019-04-23T00:08:50.195Z,987.96
2019-04-23T00:09:42.385Z,987.91
2019-04-23T00:10:44.105Z,987.87
2019-04-23T00:11:49.602Z,987.93
2019-04-23T00:12:49.402Z,987.94
2019-04-23T00:13:43.912Z,987.92
2019-04-23T00:14:51.405Z,987.83
2019-04-23T00:15:45.409Z,987.79
2019-04-23T00:16:43.953Z,987.76
2019-04-23T00:17:42.544Z,987.80
2019-04-23T00:18:46.456Z,987.80
2019-04-23T00:19:45.143Z,987.82
2019-04-23T00:20:40.747Z,987.86
2019-04-23T00:22:45.348Z,987.77
2019-04-23T00:23:47.870Z,987.81
2019-04-23T00:25:51.061Z,987.80
2019-04-23T00:26:41.830Z,987.80
2019-04-23T00:27:42.882Z,987.83
2019-04-23T00:28:47.898Z,987.84
2019-04-23T00:29:49.606Z,987.86
2019-04-23T00:31:44.586Z,987.82
2019-04-23T00:32:40.840Z,987.81
2019-04-23T00:33:43.682Z,987.81
2019-04-23T00:34:49.726Z,987.86
2019-04-23T00:37:54.897Z,987.81
2019-04-23T00:39:50.737Z,987.83
2019-04-23T00:40:43.622Z,987.78
2019-04-23T00:41:44.229Z,987.79
2019-04-23T00:42:59.538Z,987.75
2019-04-23T00:43:43.223Z,987.80
2019-04-23T00:44:48.128Z,987.74
2019-04-23T00:45:44.141Z,987.79
2019-04-23T00:46:45.282Z,987.74
2019-04-23T00:47:46.698Z,987.71
2019-04-23T00:49:46.959Z,987.71
2019-04-23T00:50:49.254Z,987.70
2019-04-23T00:51:42.918Z,987.71
2019-04-23T00:52:42.185Z,987.74
2019-04-23T00:53:40.148Z,987.69
2019-04-23T00:55:44.690Z,987.67
2019-04-23T00:56:50.791Z,987.67
2019-04-23T00:57:47.091Z,987.64
2019-04-23T00:58:43.183Z,987.63
2019-04-23T00:59:44.760Z,987.61
2019-04-23T01:02:49.351Z,987.62
2019-04-23T01:03:39.434Z,987.59
2019-04-23T01:05:42.240Z,987.61
2019-04-23T01:06:39.065Z,987.59
2019-04-23T01:07:45.825Z,987.59
2019-04-23T01:08:55.418Z,987.58
2019-04-23T01:09:47.393Z,987.64
2019-04-23T01:10:50.948Z,987.54
2019-04-23T01:11:39.186Z,987.51
2019-04-23T01:12:46.117Z,987.51
2019-04-23T01:13:47.468Z,987.50
2019-04-23T01:14:39.262Z,987.45
2019-04-23T01:16:37.417Z,987.48
2019-04-23T01:19:43.923Z,987.47
2019-04-23T01:20:44.447Z,987.46
2019-04-23T01:21:20.586Z,987.43
2019-04-23T01:22:20.992Z,987.44
2019-04-23T01:23:20.731Z,987.42
2019-04-23T01:24:25.052Z,987.44
2019-04-23T01:25:31.005Z,987.39
2019-04-23T01:26:47.972Z,987.42
2019-04-23T01:28:49.662Z,987.40
2019-04-23T01:29:54.588Z,987.33
2019-04-23T01:30:46.830Z,987.36
2019-04-23T01:31:47.523Z,987.34
2019-04-23T01:32:43.665Z,987.28
2019-04-23T01:33:53.151Z,987.30
2019-04-23T01:34:51.969Z,987.34
2019-04-23T01:35:55.785Z,987.31
2019-04-23T01:36:42.940Z,987.27
2019-04-23T01:38:46.159Z,987.29
2019-04-23T01:39:49.891Z,987.28
2019-04-23T01:40:41.154Z,987.27
2019-04-23T01:41:50.722Z,987.31
2019-04-23T01:43:01.809Z,987.28
2019-04-23T01:43:47.721Z,987.35
2019-04-23T01:44:56.404Z,987.24
2019-04-23T01:45:35.842Z,987.30
2019-04-23T01:46:49.277Z,987.30
2019-04-23T01:48:48.600Z,987.31
2019-04-23T01:49:54.318Z,987.27
2019-04-23T01:50:50.133Z,987.24
2019-04-23T01:51:49.664Z,987.26
2019-04-23T01:53:45.260Z,987.27
2019-04-23T01:54:50.008Z,987.26
2019-04-23T01:55:46.903Z,987.28
2019-04-23T01:56:39.965Z,987.25
2019-04-23T01:57:56.030Z,987.19
2019-04-23T01:58:44.021Z,987.14
2019-04-23T01:59:49.057Z,987.16
2019-04-23T02:00:47.677Z,987.11
2019-04-23T02:01:58.462Z,987.11
2019-04-23T02:02:49.938Z,987.10
2019-04-23T02:03:50.105Z,987.13
2019-04-23T02:04:47.101Z,987.12
2019-04-23T02:05:48.283Z,987.06
2019-04-23T02:06:45.846Z,987.06
2019-04-23T02:07:50.909Z,987.09
2019-04-23T02:08:50.070Z,987.04
2019-04-23T02:09:52.887Z,987.02
2019-04-23T02:10:53.702Z,987.02
2019-04-23T02:11:45.561Z,987.05
2019-04-23T02:12:53.617Z,987.00
2019-04-23T02:13:51.492Z,986.96
2019-04-23T02:14:50.370Z,986.95
2019-04-23T02:15:47.433Z,986.94
2019-04-23T02:16:45.916Z,986.96
2019-04-23T02:17:52.123Z,986.94
2019-04-23T02:18:49.354Z,986.91
2019-04-23T02:20:49.817Z,986.93
2019-04-23T02:21:43.788Z,986.88
2019-04-23T02:23:09.806Z,986.93
2019-04-23T02:23:42.440Z,986.93
2019-04-23T02:24:47.922Z,986.88
2019-04-23T02:26:45.049Z,986.84
2019-04-23T02:27:58.290Z,986.82
2019-04-23T02:31:12.148Z,986.83
2019-04-23T02:33:00.530Z,986.77
2019-04-23T02:34:14.779Z,986.81
2019-04-23T02:36:54.775Z,986.78
2019-04-23T02:38:00.638Z,986.75
2019-04-23T02:39:57.576Z,986.79
2019-04-23T02:41:04.346Z,986.73
2019-04-23T02:42:07.311Z,986.72
2019-04-23T02:43:01.538Z,986.76
2019-04-23T02:44:01.234Z,986.70
2019-04-23T02:46:01.922Z,986.64
2019-04-23T02:46:59.795Z,986.65
2019-04-23T02:48:03.367Z,986.67
2019-04-23T02:48:53.695Z,986.69
2019-04-23T02:50:43.922Z,986.62
2019-04-23T02:52:01.832Z,986.63
2019-04-23T02:52:56.117Z,986.60
2019-04-23T02:54:10.237Z,986.63
2019-04-23T02:54:57.141Z,986.56
2019-04-23T02:56:04.337Z,986.56
2019-04-23T02:56:51.151Z,986.55
2019-04-23T02:57:57.884Z,986.55
2019-04-23T02:58:52.591Z,986.52
2019-04-23T03:00:09.921Z,986.48
2019-04-23T03:01:06.467Z,986.52
2019-04-23T03:01:53.892Z,986.50
2019-04-23T03:04:58.355Z,986.48
2019-04-23T03:05:54.928Z,986.54
2019-04-23T03:06:55.959Z,986.53
2019-04-23T03:07:53.277Z,986.51
2019-04-23T03:09:51.810Z,986.52
2019-04-23T03:11:02.523Z,986.52
2019-04-23T03:13:54.331Z,986.52
2019-04-23T03:15:15.159Z,986.45
2019-04-23T03:17:59.396Z,986.44
2019-04-23T03:21:05.820Z,986.42
2019-04-23T03:23:03.640Z,986.38
2019-04-23T03:24:04.464Z,986.42
2019-04-23T03:25:56.560Z,986.46
2019-04-23T03:27:12.858Z,986.47
2019-04-23T03:27:45.990Z,986.44
2019-04-23T03:29:54.930Z,986.43
2019-04-23T03:32:34.183Z,986.42
2019-04-23T03:34:41.107Z,986.41
2019-04-23T03:38:48.383Z,986.47
2019-04-23T03:39:56.856Z,986.50
2019-04-23T03:41:02.469Z,986.42
2019-04-23T03:41:53.875Z,986.43
2019-04-23T03:43:07.921Z,986.44
2019-04-23T03:44:06.683Z,986.42
2019-04-23T03:46:12.215Z,986.47
2019-04-23T03:47:48.128Z,986.45
2019-04-23T03:48:51.180Z,986.43
2019-04-23T03:50:02.190Z,986.46
2019-04-23T03:50:44.045Z,986.45
2019-04-23T03:52:09.097Z,986.42
2019-04-23T03:52:57.273Z,986.43
2019-04-23T03:54:48.703Z,986.44
2019-04-23T03:55:54.652Z,986.41
2019-04-23T03:57:13.450Z,986.43
2019-04-23T03:57:43.413Z,986.44
2019-04-23T03:58:51.314Z,986.43
2019-04-23T04:00:58.386Z,986.39
2019-04-23T04:01:58.118Z,986.38
2019-04-23T04:03:03.748Z,986.39
2019-04-23T04:04:55.071Z,986.36
2019-04-23T04:07:10.505Z,986.37
2019-04-23T04:08:05.032Z,986.39
2019-04-23T04:09:03.132Z,986.42
2019-04-23T04:09:53.861Z,986.38
2019-04-23T04:11:09.630Z,986.33
2019-04-23T04:11:44.962Z,986.37
2019-04-23T04:12:46.018Z,986.37
2019-04-23T04:14:54.596Z,986.38
2019-04-23T04:15:55.245Z,986.34
2019-04-23T04:16:49.748Z,986.35
2019-04-23T04:18:01.845Z,986.31
2019-04-23T04:18:57.209Z,986.36
2019-04-23T04:19:59.892Z,986.30
2019-04-23T04:21:09.549Z,986.35
2019-04-23T04:22:00.322Z,986.30
2019-04-23T04:23:02.775Z,986.34
2019-04-23T04:24:11.229Z,986.31
2019-04-23T04:24:48.157Z,986.29
2019-04-23T04:26:07.102Z,986.26
2019-04-23T04:27:03.563Z,986.26
2019-04-23T04:28:54.894Z,986.29
2019-04-23T04:30:49.291Z,986.31
2019-04-23T04:31:52.310Z,986.32
2019-04-23T04:35:12.567Z,986.34
2019-04-23T04:35:47.482Z,986.30
2019-04-23T04:37:24.302Z,986.30
2019-04-23T04:38:54.483Z,986.30
2019-04-23T04:40:12.332Z,986.24
2019-04-23T04:40:57.268Z,986.28
2019-04-23T04:41:58.734Z,986.25
2019-04-23T04:43:09.283Z,986.21
2019-04-23T04:46:04.959Z,986.19
2019-04-23T04:46:50.128Z,986.19
2019-04-23T04:49:01.610Z,986.16
2019-04-23T04:51:06.101Z,986.11
2019-04-23T04:52:01.110Z,986.13
2019-04-23T04:53:12.602Z,986.14
2019-04-23T04:54:09.623Z,986.15
2019-04-23T04:54:42.320Z,986.12
2019-04-23T04:55:54.884Z,986.15
2019-04-23T04:56:58.159Z,986.09
2019-04-23T04:58:55.756Z,986.08
2019-04-23T05:01:03.631Z,986.09
2019-04-23T05:03:36.403Z,986.09
2019-04-23T05:06:08.018Z,986.03
2019-04-23T05:07:04.212Z,986.05
2019-04-23T05:07:48.200Z,986.06
2019-04-23T05:08:54.494Z,986.02
2019-04-23T05:11:04.667Z,986.01
2019-04-23T05:11:54.171Z,986.00
2019-04-23T05:12:45.255Z,986.02
2019-04-23T05:15:50.212Z,985.97
2019-04-23T05:16:52.832Z,985.98
2019-04-23T05:17:59.330Z,985.97
2019-04-23T05:18:47.088Z,985.99
2019-04-23T05:20:54.836Z,985.93
2019-04-23T05:21:54.926Z,985.97
2019-04-23T05:23:02.768Z,985.95
2019-04-23T05:25:47.904Z,985.84
2019-04-23T05:26:39.511Z,985.85
2019-04-23T05:27:56.513Z,985.83
2019-04-23T05:28:55.642Z,985.89
2019-04-23T05:29:46.226Z,985.84
2019-04-23T05:31:02.351Z,985.86
2019-04-23T05:31:42.158Z,985.82
2019-04-23T05:32:50.413Z,985.84
2019-04-23T05:33:47.662Z,985.90
2019-04-23T05:34:46.703Z,985.87
2019-04-23T05:36:08.894Z,985.90
2019-04-23T05:36:52.069Z,985.86
2019-04-23T05:37:59.063Z,985.88
2019-04-23T05:38:50.792Z,985.84
2019-04-23T05:39:52.155Z,985.88
2019-04-23T05:40:53.708Z,985.91
2019-04-23T05:41:41.712Z,985.87
2019-04-23T05:42:49.396Z,985.90
2019-04-23T05:43:46.459Z,985.90
2019-04-23T05:47:07.194Z,985.95
2019-04-23T05:47:48.243Z,985.89
2019-04-23T05:48:45.582Z,985.89
2019-04-23T05:49:47.640Z,985.86
2019-04-23T05:50:51.872Z,985.86
2019-04-23T05:51:50.899Z,985.94
2019-04-23T05:52:45.930Z,985.89
2019-04-23T05:53:46.661Z,985.94
2019-04-23T05:54:52.309Z,985.90
2019-04-23T05:55:49.394Z,985.94
2019-04-23T05:56:49.031Z,985.99
2019-04-23T05:57:47.054Z,985.99
2019-04-23T05:58:47.013Z,985.95
2019-04-23T05:59:42.214Z,986.01
2019-04-23T06:00:51.023Z,985.97
2019-04-23T06:01:53.991Z,985.99
2019-04-23T06:02:53.046Z,985.93
2019-04-23T06:03:52.625Z,985.95
2019-04-23T06:04:43.146Z,985.97
2019-04-23T06:05:46.573Z,985.98
2019-04-23T06:07:04.713Z,985.92
2019-04-23T06:08:48.460Z,985.96
2019-04-23T06:09:49.905Z,985.91
2019-04-23T06:10:54.164Z,985.84
2019-04-23T06:12:45.349Z,985.81
2019-04-23T06:13:56.322Z,985.76
2019-04-23T06:14:48.763Z,985.79
2019-04-23T06:15:46.629Z,985.86
2019-04-23T06:18:02.326Z,985.91
2019-04-23T06:18:47.920Z,985.83
2019-04-23T06:19:48.386Z,985.84
2019-04-23T06:20:48.791Z,985.85
2019-04-23T06:21:57.516Z,985.80
2019-04-23T06:24:41.547Z,985.66
2019-04-23T06:25:57.680Z,985.66
2019-04-23T06:26:45.834Z,985.59
2019-04-23T06:27:49.490Z,985.60
2019-04-23T06:28:44.158Z,985.56
2019-04-23T06:29:57.733Z,985.55
2019-04-23T06:30:46.770Z,985.54
2019-04-23T06:31:50.937Z,985.51
2019-04-23T06:32:42.977Z,985.47
2019-04-23T06:34:03.825Z,985.54
2019-04-23T06:34:42.795Z,985.51
2019-04-23T06:35:47.022Z,985.48
2019-04-23T06:36:44.477Z,985.43
2019-04-23T06:38:04.840Z,985.48
2019-04-23T06:38:58.844Z,985.44
2019-04-23T06:39:48.081Z,985.46
2019-04-23T06:40:47.606Z,985.53
2019-04-23T06:41:44.880Z,985.49
2019-04-23T06:42:49.859Z,985.41
2019-04-23T06:43:56.394Z,985.37
2019-04-23T06:44:44.972Z,985.39
2019-04-23T06:46:01.535Z,985.34
2019-04-23T06:46:50.563Z,985.37
2019-04-23T06:47:46.402Z,985.36
2019-04-23T06:48:45.455Z,985.31
2019-04-23T06:49:45.029Z,985.33
2019-04-23T06:50:52.996Z,985.29
2019-04-23T06:51:56.574Z,985.28
2019-04-23T06:52:31.923Z,985.29
2019-04-23T06:53:45.351Z,985.25
2019-04-23T06:54:49.316Z,985.26
2019-04-23T06:55:47.128Z,985.24
2019-04-23T06:56:51.097Z,985.23
2019-04-23T06:57:44.247Z,985.23
2019-04-23T06:58:43.422Z,985.24
2019-04-23T06:59:43.343Z,985.21
2019-04-23T07:01:53.193Z,985.16
2019-04-23T07:02:47.378Z,985.14
2019-04-23T07:03:43.819Z,985.14
2019-04-23T07:04:49.651Z,985.17
2019-04-23T07:05:53.482Z,985.12
2019-04-23T07:06:46.896Z,985.14
2019-04-23T07:07:55.153Z,985.13
2019-04-23T07:09:40.156Z,985.13
2019-04-23T07:10:55.503Z,985.12
2019-04-23T07:11:40.205Z,985.13
2019-04-23T07:12:55.774Z,985.17
2019-04-23T07:13:56.420Z,985.12
2019-04-23T07:15:00.854Z,985.15
2019-04-23T07:15:50.097Z,985.10
2019-04-23T07:16:38.440Z,985.11
2019-04-23T07:17:42.801Z,985.08
2019-04-23T07:18:43.470Z,985.01
2019-04-23T07:19:44.978Z,985.01
2019-04-23T07:20:40.583Z,985.03
2019-04-23T07:21:41.817Z,985.05
2019-04-23T07:22:42.853Z,984.96
2019-04-23T07:23:53.917Z,984.99
2019-04-23T07:24:43.661Z,984.99
2019-04-23T07:25:40.407Z,984.98
2019-04-23T07:26:45.361Z,984.98
2019-04-23T07:27:43.230Z,985.00
2019-04-23T07:28:50.399Z,984.94
2019-04-23T07:29:40.889Z,984.95
2019-04-23T07:30:38.362Z,984.89
2019-04-23T07:32:44.829Z,984.91
2019-04-23T07:33:50.655Z,984.90
2019-04-23T07:34:49.758Z,984.84
2019-04-23T07:35:49.479Z,984.90
2019-04-23T07:36:41.070Z,984.91
2019-04-23T07:37:51.699Z,984.92
2019-04-23T07:39:01.544Z,984.97
2019-04-23T07:39:45.642Z,985.09
2019-04-23T07:40:40.579Z,985.07
2019-04-23T07:41:47.860Z,985.11
2019-04-23T07:42:41.906Z,985.12
2019-04-23T07:43:52.458Z,985.17
2019-04-23T07:45:44.645Z,984.97
2019-04-23T07:46:56.288Z,985.04
2019-04-23T07:47:41.781Z,985.01
2019-04-23T07:48:43.792Z,984.90
2019-04-23T07:49:49.131Z,984.78
2019-04-23T07:50:44.124Z,984.82
2019-04-23T07:51:46.897Z,984.76
2019-04-23T07:52:50.664Z,984.74
2019-04-23T07:53:46.536Z,984.65
2019-04-23T07:54:51.286Z,984.71
2019-04-23T07:55:49.628Z,984.62
2019-04-23T07:56:47.684Z,984.68
2019-04-23T07:57:41.919Z,984.72
2019-04-23T07:58:44.785Z,984.72
2019-04-23T07:59:50.178Z,984.71
2019-04-23T08:01:39.220Z,984.66
2019-04-23T08:03:08.706Z,984.66
2019-04-23T08:03:45.993Z,984.64
2019-04-23T08:04:56.808Z,984.70
2019-04-23T08:05:39.682Z,984.60
2019-04-23T08:06:50.657Z,984.60
2019-04-23T08:07:47.273Z,984.61
2019-04-23T08:08:47.484Z,984.61
2019-04-23T08:09:48.130Z,984.70
2019-04-23T08:11:12.046Z,984.63
2019-04-23T08:11:58.019Z,984.63
2019-04-23T08:12:46.912Z,984.64
2019-04-23T08:13:48.907Z,984.59
2019-04-23T08:14:51.571Z,984.67
2019-04-23T08:15:43.371Z,984.57
2019-04-23T08:16:43.843Z,984.57
2019-04-23T08:17:41.549Z,984.58
2019-04-23T08:18:49.327Z,984.55
2019-04-23T08:19:49.906Z,984.59
2019-04-23T08:20:49.030Z,984.50
2019-04-23T08:21:39.982Z,984.49
2019-04-23T08:22:53.772Z,984.53
2019-04-23T08:23:42.552Z,984.53
2019-04-23T08:24:52.101Z,984.59
2019-04-23T08:26:00.486Z,984.47
2019-04-23T08:27:43.648Z,984.61
2019-04-23T08:28:58.385Z,984.56
2019-04-23T08:29:41.043Z,984.59
2019-04-23T08:30:49.925Z,984.56
2019-04-23T08:31:45.115Z,984.53
2019-04-23T08:32:45.232Z,984.43
2019-04-23T08:33:49.909Z,984.49
2019-04-23T08:34:45.122Z,984.46
2019-04-23T08:35:48.598Z,984.47
2019-04-23T08:37:54.351Z,984.41
2019-04-23T08:38:44.429Z,984.35
2019-04-23T08:39:44.627Z,984.38
2019-04-23T08:40:52.313Z,984.35
2019-04-23T08:41:59.961Z,984.27
2019-04-23T08:43:49.374Z,984.25
2019-04-23T08:44:46.182Z,984.23
2019-04-23T08:45:35.495Z,984.30
2019-04-23T08:46:51.820Z,984.21
2019-04-23T08:47:42.591Z,984.25
2019-04-23T08:48:41.615Z,984.18
2019-04-23T08:49:46.813Z,984.20
2019-04-23T08:52:48.386Z,984.15
2019-04-23T08:53:41.003Z,984.18
2019-04-23T08:54:55.906Z,984.16
2019-04-23T08:56:48.570Z,984.19
2019-04-23T08:57:36.942Z,984.19
2019-04-23T08:58:54.928Z,984.18
2019-04-23T08:59:45.469Z,984.17
2019-04-23T09:00:45.670Z,984.15
2019-04-23T09:01:59.464Z,984.14
2019-04-23T09:02:42.477Z,984.18
2019-04-23T09:03:51.259Z,984.15
2019-04-23T09:05:00.507Z,984.14
2019-04-23T09:05:48.194Z,984.22
2019-04-23T09:06:35.402Z,984.15
2019-04-23T09:07:45.601Z,984.15
2019-04-23T09:09:57.600Z,984.11
2019-04-23T09:11:50.907Z,984.09
2019-04-23T09:12:45.406Z,984.03
2019-04-23T09:13:54.810Z,984.07
2019-04-23T09:14:46.556Z,984.06
2019-04-23T09:15:44.967Z,984.09
2019-04-23T09:16:48.812Z,984.05
2019-04-23T09:17:49.811Z,984.11
2019-04-23T09:18:36.882Z,984.01
2019-04-23T09:19:56.288Z,984.01
2019-04-23T09:20:37.805Z,984.01
2019-04-23T09:21:40.537Z,984.00
2019-04-23T09:22:38.601Z,984.01
2019-04-23T09:26:41.025Z,984.02
2019-04-23T09:27:41.970Z,984.02
2019-04-23T09:28:44.806Z,984.07
2019-04-23T09:30:00.806Z,984.07
2019-04-23T09:30:44.886Z,984.04
2019-04-23T09:32:14.863Z,983.97
2019-04-23T09:32:49.174Z,984.00
2019-04-23T09:33:46.643Z,983.99
2019-04-23T09:34:46.520Z,984.04
2019-04-23T09:35:38.954Z,983.95
2019-04-23T09:36:40.544Z,983.96
2019-04-23T09:38:44.906Z,983.97
2019-04-23T09:39:42.237Z,983.96
2019-04-23T09:40:54.445Z,983.95
2019-04-23T09:41:38.046Z,984.06
2019-04-23T09:42:52.519Z,984.02
2019-04-23T09:43:36.956Z,983.99
2019-04-23T09:44:56.554Z,984.00
2019-04-23T09:45:48.429Z,984.03
2019-04-23T09:46:44.052Z,984.07
2019-04-23T09:47:46.309Z,983.95
2019-04-23T09:48:51.095Z,984.04
2019-04-23T09:49:40.977Z,984.03
2019-04-23T09:50:47.207Z,984.03
2019-04-23T09:51:47.417Z,983.99
2019-04-23T09:52:52.690Z,983.96
2019-04-23T09:53:47.192Z,983.95
2019-04-23T09:54:51.020Z,984.07
2019-04-23T09:55:43.101Z,984.09
2019-04-23T09:56:44.614Z,984.00
2019-04-23T09:57:45.903Z,984.02
2019-04-23T09:58:48.518Z,984.03
2019-04-23T09:59:43.271Z,984.02
2019-04-23T10:01:44.133Z,984.09
2019-04-23T10:02:34.281Z,984.10
2019-04-23T10:03:25.713Z,984.17
2019-04-23T10:04:29.684Z,984.14
2019-04-23T10:05:28.859Z,984.09
2019-04-23T10:06:22.794Z,984.14
2019-04-23T10:07:28.894Z,984.12
2019-04-23T10:08:21.977Z,984.08
2019-04-23T10:09:16.674Z,984.10
2019-04-23T10:10:14.428Z,984.21
2019-04-23T10:11:15.854Z,984.24
2019-04-23T10:12:14.634Z,984.20
2019-04-23T10:13:13.899Z,984.15
2019-04-23T10:14:14.678Z,984.14
2019-04-23T10:15:22.775Z,984.13
2019-04-23T10:16:17.339Z,984.18
2019-04-23T10:17:14.021Z,984.16
2019-04-23T10:18:14.190Z,984.17
2019-04-23T10:19:15.110Z,984.09
2019-04-23T10:20:13.817Z,984.10
2019-04-23T10:21:15.327Z,984.13
2019-04-23T10:22:15.176Z,984.15
2019-04-23T10:23:14.240Z,984.14
2019-04-23T10:24:15.152Z,984.14
2019-04-23T10:25:15.095Z,984.11
2019-04-23T10:26:14.265Z,984.07
2019-04-23T10:27:14.848Z,984.08
2019-04-23T10:28:15.163Z,984.07
2019-04-23T10:29:14.099Z,984.01
2019-04-23T10:30:14.489Z,983.97
2019-04-23T10:31:14.525Z,984.01
2019-04-23T10:32:13.715Z,984.07
2019-04-23T10:33:13.939Z,984.12
2019-04-23T10:34:14.811Z,984.15
2019-04-23T10:35:22.232Z,984.04
2019-04-23T10:36:19.096Z,984.01
2019-04-23T10:37:15.595Z,983.99
2019-04-23T10:38:16.381Z,983.97
2019-04-23T10:39:20.745Z,983.94
2019-04-23T10:40:19.635Z,983.87
2019-04-23T10:41:15.993Z,983.93
2019-04-23T10:42:14.206Z,983.76
2019-04-23T10:43:15.046Z,983.87
2019-04-23T10:44:13.569Z,983.76
2019-04-23T10:45:27.299Z,983.83
2019-04-23T10:46:36.582Z,983.82
2019-04-23T10:47:44.677Z,983.80
2019-04-23T10:48:57.641Z,983.80
2019-04-23T10:50:49.561Z,983.83
2019-04-23T10:52:02.600Z,983.83
2019-04-23T10:52:37.643Z,983.95
2019-04-23T10:54:12.596Z,983.79
2019-04-23T10:57:41.319Z,983.79
2019-04-23T10:58:38.460Z,983.68
2019-04-23T11:00:44.979Z,983.83
2019-04-23T11:01:43.604Z,983.89
2019-04-23T11:02:57.805Z,983.70
2019-04-23T11:04:54.355Z,983.73
2019-04-23T11:05:56.324Z,983.72
2019-04-23T11:06:45.075Z,983.68
2019-04-23T11:07:47.181Z,983.70
2019-04-23T11:08:42.435Z,983.80
2019-04-23T11:09:52.970Z,983.73
2019-04-23T11:10:48.432Z,983.72
2019-04-23T11:11:48.312Z,983.74
2019-04-23T11:17:45.610Z,983.74
2019-04-23T11:18:52.090Z,983.76
2019-04-23T11:19:49.313Z,983.68
2019-04-23T11:20:45.444Z,983.68
2019-04-23T11:21:43.086Z,983.64
2019-04-23T11:22:45.167Z,983.67
2019-04-23T11:23:42.081Z,983.61
2019-04-23T11:24:48.330Z,983.68
2019-04-23T11:25:42.923Z,983.59
2019-04-23T11:26:42.371Z,983.60
2019-04-23T11:27:44.008Z,983.60
2019-04-23T11:28:38.235Z,983.62
2019-04-23T11:29:38.697Z,983.69
2019-04-23T11:33:42.985Z,983.61
2019-04-23T11:38:56.250Z,983.58
2019-04-23T11:39:45.915Z,983.54
2019-04-23T11:40:38.470Z,983.59
2019-04-23T11:42:47.167Z,983.59
2019-04-23T11:43:39.496Z,983.57
2019-04-23T11:44:42.003Z,983.54
2019-04-23T11:45:50.305Z,983.56
2019-04-23T11:48:14.662Z,983.71
2019-04-23T11:48:50.799Z,983.57
2019-04-23T11:53:54.251Z,983.50
2019-04-23T11:55:44.676Z,983.47
2019-04-23T11:57:52.025Z,983.48
2019-04-23T11:58:42.855Z,983.50
2019-04-23T11:59:44.303Z,983.56
2019-04-23T12:00:57.207Z,983.55
2019-04-23T12:02:43.357Z,983.51
2019-04-23T12:03:57.103Z,983.54
2019-04-23T12:04:47.399Z,983.57
2019-04-23T12:05:50.621Z,983.52
2019-04-23T12:06:39.812Z,983.51
2019-04-23T12:09:51.712Z,983.55
2019-04-23T12:10:45.883Z,983.49
2019-04-23T12:12:53.360Z,983.44
2019-04-23T12:13:56.607Z,983.43
2019-04-23T12:16:49.204Z,983.39
2019-04-23T12:17:43.861Z,983.39
2019-04-23T12:20:49.125Z,983.46
2019-04-23T12:21:44.699Z,983.46
2019-04-23T12:22:51.429Z,983.46
2019-04-23T12:23:48.419Z,983.44
2019-04-23T12:25:02.524Z,983.40
2019-04-23T12:26:56.545Z,983.39
2019-04-23T12:27:33.396Z,983.37
2019-04-23T12:28:43.925Z,983.39
2019-04-23T12:30:48.620Z,983.44
2019-04-23T12:31:47.650Z,983.38
2019-04-23T12:32:46.474Z,983.45
2019-04-23T12:33:53.615Z,983.39
2019-04-23T12:34:52.572Z,983.38
2019-04-23T12:35:35.593Z,983.41
2019-04-23T12:36:51.029Z,983.43
2019-04-23T12:37:39.114Z,983.36
2019-04-23T12:38:40.716Z,983.33
2019-04-23T12:39:42.031Z,983.30
2019-04-23T12:40:45.681Z,983.43
2019-04-23T12:41:43.426Z,983.25
2019-04-23T12:43:28.816Z,983.30
2019-04-23T12:44:45.693Z,983.36
2019-04-23T12:45:38.758Z,983.36
2019-04-23T12:46:48.878Z,983.30
2019-04-23T12:47:49.192Z,983.25
2019-04-23T12:48:53.304Z,983.27
2019-04-23T12:53:45.520Z,983.20
2019-04-23T12:55:01.418Z,983.12
2019-04-23T12:55:39.993Z,983.08
2019-04-23T12:56:53.118Z,983.12
2019-04-23T12:57:40.892Z,983.06
2019-04-23T12:58:34.058Z,983.11
2019-04-23T12:59:47.752Z,983.13
2019-04-23T13:01:48.903Z,983.07
2019-04-23T13:02:46.748Z,983.05
2019-04-23T13:06:42.585Z,982.99
2019-04-23T13:08:44.638Z,982.95
2019-04-23T13:09:49.121Z,983.00
2019-04-23T13:10:53.997Z,982.97
2019-04-23T13:11:45.063Z,982.92
2019-04-23T13:12:57.223Z,982.97
2019-04-23T13:13:48.229Z,982.98
2019-04-23T13:14:49.093Z,982.89
2019-04-23T13:15:40.274Z,982.94
2019-04-23T13:16:50.000Z,982.99
2019-04-23T13:17:50.370Z,982.86
2019-04-23T13:19:51.876Z,982.83
2019-04-23T13:20:47.952Z,982.85
2019-04-23T13:24:40.772Z,982.84
2019-04-23T13:25:55.526Z,982.81
2019-04-23T13:26:35.369Z,982.84
2019-04-23T13:27:46.646Z,982.81
2019-04-23T13:28:40.566Z,982.78
2019-04-23T13:29:43.206Z,982.82
2019-04-23T13:31:34.642Z,982.79
2019-04-23T13:32:46.398Z,982.80
2019-04-23T13:33:51.403Z,982.74
2019-04-23T13:34:51.045Z,982.73
2019-04-23T13:36:01.637Z,982.73
2019-04-23T13:37:46.093Z,982.71
2019-04-23T13:39:42.195Z,982.62
2019-04-23T13:41:52.121Z,982.63
2019-04-23T13:42:47.889Z,982.63
2019-04-23T13:43:41.005Z,982.62
2019-04-23T13:44:42.711Z,982.61
2019-04-23T13:46:35.644Z,982.56
2019-04-23T13:47:59.643Z,982.57
2019-04-23T13:48:40.137Z,982.69
2019-04-23T13:49:49.275Z,982.64
2019-04-23T13:51:43.499Z,982.57
2019-04-23T13:55:04.679Z,982.58
2019-04-23T13:55:36.245Z,982.60
2019-04-23T13:57:12.976Z,982.58
2019-04-23T13:58:43.362Z,982.46
2019-04-23T13:59:47.103Z,982.47
2019-04-23T14:00:58.103Z,982.50
2019-04-23T14:04:45.175Z,982.58
2019-04-23T14:05:41.203Z,982.57
2019-04-23T14:06:43.406Z,982.57
2019-04-23T14:07:48.599Z,982.48
2019-04-23T14:08:47.394Z,982.67
2019-04-23T14:09:45.862Z,982.62
2019-04-23T14:10:43.453Z,982.62
2019-04-23T14:11:40.418Z,982.58
2019-04-23T14:13:06.528Z,982.56
2019-04-23T14:13:52.045Z,982.57
2019-04-23T14:14:47.835Z,982.55
2019-04-23T14:15:47.928Z,982.55
2019-04-23T14:18:56.565Z,982.51
2019-04-23T14:19:41.824Z,982.48
2019-04-23T14:20:40.442Z,982.50
2019-04-23T14:21:37.685Z,982.65
2019-04-23T14:23:59.673Z,982.45
2019-04-23T14:25:02.062Z,982.39
2019-04-23T14:25:51.732Z,982.41
2019-04-23T14:27:49.514Z,982.39
2019-04-23T14:29:48.972Z,982.52
2019-04-23T14:30:46.422Z,982.39
2019-04-23T14:33:46.975Z,982.29
2019-04-23T14:34:48.385Z,982.35
2019-04-23T14:35:40.317Z,982.36
2019-04-23T14:36:44.731Z,982.35
2019-04-23T14:37:52.825Z,982.40
2019-04-23T14:39:42.669Z,982.28
2019-04-23T14:40:51.382Z,982.31
2019-04-23T14:42:02.768Z,982.31
2019-04-23T14:43:49.262Z,982.45
2019-04-23T14:44:41.482Z,982.31
2019-04-23T14:46:17.417Z,982.27
2019-04-23T14:46:50.127Z,982.27
2019-04-23T14:48:46.507Z,982.29
2019-04-23T14:49:53.971Z,982.24
2019-04-23T14:50:41.232Z,982.25
2019-04-23T14:52:00.148Z,982.23
2019-04-23T14:52:50.757Z,982.30
2019-04-23T14:53:42.648Z,982.29
2019-04-23T14:55:15.261Z,982.21
2019-04-23T14:55:55.696Z,982.25
2019-04-23T14:57:06.797Z,982.26
2019-04-23T14:59:37.599Z,982.22
2019-04-23T15:00:54.114Z,982.15
2019-04-23T15:01:55.005Z,982.13
2019-04-23T15:02:46.525Z,982.14
2019-04-23T15:03:50.532Z,982.17
2019-04-23T15:04:43.693Z,982.16
2019-04-23T15:05:52.780Z,982.14
2019-04-23T15:06:46.839Z,982.16
2019-04-23T15:09:43.881Z,982.16
2019-04-23T15:11:06.676Z,982.21
2019-04-23T15:11:45.353Z,982.15
2019-04-23T15:13:45.618Z,982.14
2019-04-23T15:14:45.989Z,982.09
2019-04-23T15:15:44.221Z,982.02
2019-04-23T15:17:44.579Z,982.04
2019-04-23T15:18:52.661Z,982.07
2019-04-23T15:19:43.158Z,982.02
2019-04-23T15:20:41.685Z,982.06
2019-04-23T15:21:53.716Z,982.07
2019-04-23T15:22:53.235Z,982.07
2019-04-23T15:24:46.897Z,982.00
2019-04-23T15:25:53.204Z,982.07